Archival Weather

Heathrow

London, United Kingdom (EGLL)

Report from: Sunday, March 19, 2023 4:20 PM GMT
Current time: Friday, June 21, 2024 11:56 PM BST

Current weather – Weather history – Daily summaries
Weather forecast

Temperature11.0°C (51.8°F)
Dew point3.0°C (37.4°F)
Winds 8 kts (4.1 m/s, 9.2 mph) West (280°)
Visibility6.2 mi. (10 km)
Clouds Ceiling: Overcast 4,500 ft. (1,372 m)
Altimeter30.03 in.Hg (1017 mB)
Relative humidity58 %
Density altitude-491 ft. (-150 m)
Remarks Fully automated report
Flight conditions Visual Meteorological Conditions
Raw dataEGLL 191620Z AUTO 28008KT 9999 OVC045 11/03 Q1017
An error has occurred. This application may no longer respond until reloaded. Reload 🗙